Devils Lake, North Dakota
Current Conditions -  °F | °C
As of 3:55 AM on Friday 24 Oct 2014 (Local Time) from KDVL Reporting Station
Clear Clear  
Wind Chill: 52°   Ceiling: Unl
Heat Index: 52°   Visibility: 10mi
Dew Point: 36°   Wind: 7mph
Humidity: 54%   Direction: 240°WSW
Pressure: 29.74"   Gusts: NA
Location:  48.11°N, 98.86°W
Report Text: KDVL 240855Z AUTO 24006KT 10SM CLR 11/02 A2974 RMK AO1 57003
Loading
Personal Weather Stations






























Interactive Weather Map New forecast layout! Learn more

10-Day Weather Forecast

Advertisements
Track Severe Weather on mobile